Date,TemperatureHighF,TemperatureAvgF,TemperatureLowF,DewpointHighF,DewpointAvgF,DewpointLowF,HumidityHigh,HumidityAvg,HumidityLow,PressureMaxIn,PressureMinIn,WindSpeedMaxMPH,WindSpeedAvgMPH,GustSpeedMaxMPH,PrecipitationSumIn
2013-4-11,51,48,46,49,47,44,96,93,90,30.01,29.94,24,10,33,0.00
2013-4-12,46,45,43,45,44,43,97,96,94,29.98,29.67,31,16,38,0.64
2013-4-13,51,46,43,48,44,42,98,91,76,29.98,29.72,16,7,19,0.73
2013-4-14,59,52,47,47,41,30,93,69,36,30.20,29.98,24,8,36,0.00
2013-4-15,50,48,46,45,41,36,90,78,67,30.37,30.20,20,7,24,0.00
2013-4-16,60,52,47,56,50,45,94,89,80,30.37,30.15,18,10,30,0.00
2013-4-17,60,56,52,56,50,38,93,81,57,30.29,30.11,17,6,20,0.00
2013-4-18,54,51,49,53,48,41,96,88,67,30.34,30.11,13,5,15,0.00
2013-4-19,65,58,51,64,56,50,98,96,89,30.11,29.69,29,12,41,0.08
2013-4-20,59,53,49,58,40,29,98,64,38,30.28,29.69,28,14,33,0.06
2013-4-21,50,43,39,31,27,23,59,53,45,30.58,30.29,17,10,23,0.06
2013-4-24,54,49,43,52,43,-100,95,87,78,30.09,0.00,25,-18,36,0.00
2013-4-25,58,52,47,53,42,32,92,70,38,30.27,29.90,24,10,33,0.05
2013-4-26,57,52,45,47,42,37,81,70,50,30.40,30.28,11,5,15,0.05
2013-4-27,56,53,48,46,42,37,79,68,52,30.43,30.31,35,7,57,0.00
2013-4-28,56,53,49,49,46,41,90,79,69,30.34,30.22,11,6,15,0.00
2013-4-29,54,52,50,50,49,48,93,90,83,30.24,30.16,16,8,21,0.21
2013-4-30,56,52,50,50,48,45,93,85,77,30.32,30.18,16,9,17,0.21
2013-5-1,53,50,48,49,46,45,93,86,78,30.47,30.31,15,8,19,0.00
2013-5-2,56,53,50,49,47,46,90,80,72,30.47,30.34,12,6,16,0.00
2013-5-3,53,51,49,49,46,43,89,81,68,30.46,30.36,23,10,27,0.00
2013-5-4,54,51,47,50,46,43,92,84,77,30.36,30.26,17,8,19,0.00
2013-5-5,51,49,47,46,43,41,90,81,76,30.29,30.23,18,11,25,0.00
2013-5-6,53,50,49,49,48,46,96,91,84,30.27,30.16,20,8,20,0.00
2013-5-7,56,52,49,55,51,48,97,96,96,30.16,30.07,15,8,16,0.07
2013-5-8,59,54,48,58,-4,-100,97,58,89,30.07,29.96,23,9,32,0.50
2013-5-9,69,60,55,60,43,-100,97,81,66,30.00,29.89,15,5,18,0.03
2013-5-10,68,62,58,62,58,56,94,87,74,30.00,29.89,14,7,18,0.03
2013-5-11,67,61,57,64,59,56,97,93,78,29.91,29.71,18,8,29,0.16
2013-5-12,66,61,53,64,47,30,98,64,30,29.96,29.68,33,13,36,0.16
2013-5-13,55,51,46,38,34,28,72,51,38,30.10,29.96,23,11,31,0.00
2013-5-14,58,50,42,46,36,27,78,61,33,30.14,30.04,17,9,21,0.00
2013-5-15,64,57,52,59,51,41,90,82,65,30.09,29.69,16,8,27,0.00
2013-5-16,70,63,57,63,57,51,93,79,60,29.84,29.70,14,5,21,0.07
2013-5-17,69,63,59,62,46,-100,83,58,39,30.19,29.82,15,-17,41,0.07
2013-5-18,60,58,56,57,54,45,92,86,58,30.31,30.19,17,5,20,0.08
2013-5-19,58,57,56,58,55,54,97,95,91,30.30,30.16,20,10,25,0.19
2013-5-20,66,60,56,65,59,55,98,97,93,30.17,29.97,10,4,18,0.01
2013-5-21,72,62,46,68,-17,-100,96,45,81,29.98,29.84,15,8,21,0.01
2013-5-22,67,61,53,65,25,-100,98,72,86,29.92,29.83,21,8,24,0.00
2013-5-23,68,63,58,65,5,-100,98,62,90,29.91,29.77,27,12,33,0.01
2013-5-24,73,58,46,65,-6,-100,98,57,82,29.96,29.69,29,12,33,0.31
2013-5-25,59,52,45,46,42,37,93,72,48,30.02,29.91,38,18,46,0.04
2013-5-26,68,58,49,44,39,36,72,51,32,30.20,29.99,27,13,34,0.04
2013-5-27,72,60,49,52,47,40,77,65,37,30.26,30.13,16,6,20,0.00
2013-5-28,62,58,56,61,54,49,97,87,64,30.22,30.11,13,5,17,0.40
2013-5-29,72,58,38,65,21,-100,97,68,79,30.11,30.01,13,6,18,0.01
2013-5-30,70,49,32,62,-44,-100,88,30,74,30.13,30.05,16,8,20,0.01
2013-5-31,73,53,34,65,-45,-100,86,28,77,30.12,30.00,16,8,23,0.00
2013-6-1,85,38,32,71,-41,-100,86,25,53,30.03,29.90,24,-358,29,0.00
2013-6-2,-200,0,200,-100,-100,-100,0,0,100,29.91,29.79,0,-999,0,0.00
2013-6-3,-200,0,200,-100,-100,-100,0,0,100,29.84,29.76,0,-999,0,0.00
2013-6-4,-200,0,200,-100,-100,-100,0,0,100,30.06,29.84,0,-999,0,0.00
2013-6-5,-200,0,200,-100,-100,-100,0,0,100,30.18,30.06,0,-999,0,0.00
2013-6-6,-200,0,200,-100,-100,-100,0,0,100,30.10,29.95,0,-999,0,0.00
2013-6-7,-200,0,200,-100,-100,-100,0,0,100,29.96,29.52,0,-999,0,0.00
2013-6-8,-200,0,200,-100,-100,-100,0,0,100,30.02,29.48,0,-999,0,0.00
2013-6-9,-200,0,200,-100,-100,-100,0,0,100,30.15,30.03,0,-999,0,0.00
2013-6-10,-200,0,200,-100,-100,-100,0,0,100,30.12,29.79,0,-999,0,0.00
2013-6-11,-200,0,200,-100,-100,-100,0,0,100,29.78,29.62,0,-999,0,0.00
2013-6-12,-200,0,200,-100,-100,-100,0,0,100,29.82,29.70,0,-999,0,0.00
2013-6-13,-200,0,200,-100,-100,-100,0,0,100,29.82,29.36,0,-999,0,0.00
2013-6-14,-200,0,200,-100,-100,-100,0,0,100,29.87,29.42,0,-999,0,0.00
2013-6-15,-200,0,200,-100,-100,-100,0,0,100,29.98,29.86,0,-999,0,0.00
2013-6-16,-200,0,200,-100,-100,-100,0,0,100,29.97,29.77,0,-999,0,0.00
2013-6-17,-200,0,200,-100,-100,-100,0,0,100,29.89,29.80,0,-999,0,0.00
2013-6-18,-200,0,200,-100,-100,-100,0,0,100,29.87,29.77,0,-999,0,0.00
2013-6-19,-200,0,200,-100,-100,-100,0,0,100,30.13,29.82,0,-999,0,0.00
2013-6-20,-200,0,200,-100,-100,-100,0,0,100,30.25,30.13,0,-999,0,0.00
2013-6-21,-200,0,200,-100,-100,-100,0,0,100,30.29,30.22,0,-999,0,0.00
2013-6-22,-200,0,200,-100,-100,-100,0,0,100,30.24,30.12,0,-999,0,0.00
2013-6-23,-200,0,200,-100,-100,-100,0,0,100,30.18,30.05,0,-999,0,0.00
2013-6-24,-200,0,200,-100,-100,-100,0,0,100,30.06,29.95,0,-999,0,0.00
2013-6-25,-200,0,200,-100,-100,-100,0,0,100,29.97,29.80,0,-999,0,0.00
2013-6-26,-200,0,200,-100,-100,-100,0,0,100,29.84,29.74,0,-999,0,0.00
2013-6-27,-200,0,200,-100,-100,-100,0,0,100,29.78,29.57,0,-999,0,0.00
2013-6-28,-200,0,200,-100,-100,-100,0,0,100,29.57,29.45,0,-999,0,0.00
2013-6-29,-200,0,200,-100,-100,-100,0,0,100,29.68,29.47,0,-999,0,0.00
2013-6-30,-200,0,200,-100,-100,-100,0,0,100,29.88,29.68,0,-999,0,0.00
2013-7-1,-200,0,200,-100,-100,-100,0,0,100,30.03,29.87,0,-999,0,0.00
2013-7-2,-200,0,200,-100,-100,-100,0,0,100,30.17,30.02,0,-999,0,0.00
2013-7-3,-200,0,200,-100,-100,-100,0,0,100,30.23,30.15,0,-999,0,0.00
2013-7-4,-200,0,200,-100,-100,-100,0,0,100,30.24,30.14,0,-999,0,0.00
2013-7-5,-200,0,200,-100,-100,-100,0,0,100,30.20,30.07,0,-999,0,0.00
2013-7-6,-200,0,200,-100,-100,-100,0,0,100,30.12,30.00,0,-999,0,0.00
2013-7-7,-200,0,200,-100,-100,-100,0,0,100,30.05,29.90,0,-999,0,0.00
2013-7-8,-200,0,200,-100,-100,-100,0,0,100,30.02,29.97,0,-999,0,0.00
2013-7-9,-200,0,200,-100,-100,-100,0,0,100,30.05,29.96,0,-999,0,0.00
2013-7-10,-200,0,200,-100,-100,-100,0,0,100,30.00,29.80,0,-999,0,0.00
2013-7-11,-200,0,200,-100,-100,-100,0,0,100,29.87,29.79,0,-999,0,0.00
2013-7-12,-200,0,200,-100,-100,-100,0,0,100,30.02,29.87,0,-999,0,0.00
2013-7-13,-200,0,200,-100,-100,-100,0,0,100,30.25,30.02,0,-999,0,0.00
2013-7-14,-200,0,200,-100,-100,-100,0,0,100,30.30,30.21,0,-999,0,0.00
2013-7-15,-200,0,200,-100,-100,-100,0,0,100,30.23,30.08,0,-999,0,0.00
2013-7-16,-200,0,200,-100,-100,-100,0,0,100,30.14,30.08,0,-999,0,0.00
2013-7-17,-200,0,200,-100,-100,-100,0,0,100,30.14,30.04,0,-999,0,0.00
2013-7-18,-200,0,200,-100,-100,-100,0,0,100,30.05,29.92,0,-999,0,0.00
2013-7-19,-200,0,200,-100,-100,-100,0,0,100,29.95,29.78,0,-999,0,0.00
2013-7-20,-200,0,200,-100,-100,-100,0,0,100,29.81,29.69,0,-999,0,0.00
2013-7-21,-200,0,200,-100,-100,-100,0,0,100,29.91,29.80,0,-999,0,0.00
2013-7-22,-200,0,200,-100,-100,-100,0,0,100,29.91,29.75,0,-999,0,0.00
2013-7-23,-200,0,200,-100,-100,-100,0,0,100,29.75,29.54,0,-999,0,0.00
2013-7-24,-200,0,200,-100,-100,-100,0,0,100,29.84,29.59,0,-999,0,0.00
2013-7-25,-200,0,200,-100,-100,-100,0,0,100,29.99,29.86,0,-999,0,0.00
2013-7-26,-200,0,200,-100,-100,-100,0,0,100,30.03,29.94,0,-999,0,0.00
2013-7-27,-200,0,200,-100,-100,-100,0,0,100,30.03,29.93,0,-999,0,0.00
2013-7-28,-200,0,200,-100,-100,-100,0,0,100,29.96,29.89,0,-999,0,0.00
2013-7-29,-200,0,200,-100,-100,-100,0,0,100,30.07,29.91,0,-999,0,0.00
2013-7-30,-200,0,200,-100,-100,-100,0,0,100,30.14,30.07,0,-999,0,0.00
2013-7-31,-200,0,200,-100,-100,-100,0,0,100,30.13,30.01,0,-999,0,0.00
2013-8-1,-200,0,200,-100,-100,-100,0,0,100,30.01,29.80,0,-999,0,0.00
2013-8-2,-200,0,200,-100,-100,-100,0,0,100,29.90,29.77,0,-999,0,0.00
2013-8-3,-200,0,200,-100,-100,-100,0,0,100,29.90,29.84,0,-999,0,0.00
2013-8-4,-200,0,200,-100,-100,-100,0,0,100,29.94,29.82,0,-999,0,0.00
2013-8-5,-200,0,200,-100,-100,-100,0,0,100,30.02,29.94,0,-999,0,0.00
2013-8-6,-200,0,200,-100,-100,-100,0,0,100,30.09,30.00,0,-999,0,0.00
2013-8-7,-200,0,200,-100,-100,-100,0,0,100,30.11,30.04,0,-999,0,0.00
2013-8-8,76,22,72,73,-49,-100,94,27,88,30.04,29.99,21,-700,27,0.00
2013-8-9,81,77,74,76,74,71,96,92,83,30.00,29.80,23,10,27,0.03
2013-8-10,82,78,73,75,68,61,96,75,51,30.00,29.83,11,5,19,0.00
2013-8-11,74,72,67,71,64,59,92,76,61,30.09,30.00,19,7,29,0.00
2013-8-12,79,74,70,73,70,67,94,87,74,30.01,29.90,15,3,16,0.11
2013-8-13,75,50,23,74,-3,-100,98,52,28,29.90,29.68,19,6,27,0.77
2013-8-14,23,0,-31,-7,-97,-100,28,1,28,30.02,29.71,25,11,28,0.01
2013-8-15,72,22,-46,60,-13,-100,72,35,55,30.12,30.02,22,-14,35,0.00
2013-8-16,75,70,61,61,58,54,82,67,49,30.17,30.10,11,6,16,0.00
2013-8-17,75,69,61,63,60,58,88,73,56,30.24,30.18,8,4,11,0.00
2013-8-18,74,70,66,65,62,55,91,77,62,30.22,30.09,16,6,18,0.00
2013-8-19,77,71,64,66,61,57,86,72,54,30.11,30.02,14,5,16,0.00
2013-8-20,81,74,67,72,68,65,96,83,61,30.11,30.03,18,7,22,0.00
2013-8-21,85,77,70,75,71,64,94,82,50,30.15,30.04,19,6,22,0.00
2013-8-22,76,33,6,71,-37,-100,91,32,83,30.04,29.86,22,8,52,0.06
2013-8-23,11,5,-9,-100,-100,-100,0,0,100,30.04,29.84,14,6,16,0.00
2013-8-24,-9,-18,-28,-100,-100,-100,0,0,100,30.31,30.05,17,8,24,1.31
2013-8-25,70,5,-30,59,-87,-100,92,6,61,30.38,30.23,18,6,22,0.00
2013-8-26,68,-12,-40,61,-71,-100,83,14,63,30.23,29.90,23,13,25,0.00
2013-8-27,-26,-34,-43,-100,-100,-100,0,0,100,29.90,29.81,18,8,26,0.00
2013-8-28,71,-15,-36,-100,-100,-100,0,0,100,29.87,29.80,10,4,12,0.01
2013-8-29,12,6,2,-100,-100,-100,0,0,100,30.00,29.83,23,10,26,0.00
2013-8-30,6,2,-4,-100,-100,-100,0,0,100,30.00,29.85,17,8,20,0.00
2013-8-31,6,2,-3,-100,-100,-100,0,0,100,29.87,29.77,20,12,28,0.00
2013-9-1,13,5,-1,-100,-100,-100,0,0,100,29.83,29.76,14,7,19,0.02
2013-9-2,32,26,12,-11,-97,-100,28,1,28,29.77,29.69,12,4,15,0.03
2013-9-3,36,26,8,-7,-95,-100,28,1,28,29.86,29.69,17,7,19,0.00
2013-9-4,12,1,-32,-100,-100,-100,0,0,100,29.98,29.86,14,9,20,0.00
2013-9-5,-14,-44,-90,-100,-100,-100,0,0,100,30.10,29.93,21,9,23,0.00
2013-9-6,-90,-90,-90,-100,-100,-100,0,0,100,30.22,30.10,19,8,23,0.00
2013-9-7,57,-58,-90,52,-83,-100,87,10,77,30.11,29.89,19,7,21,0.00
2013-9-8,-90,-90,-90,-100,-100,-100,0,0,100,30.03,29.79,19,10,22,0.00
2013-9-9,69,-39,-90,56,-87,-100,69,6,63,30.21,30.04,18,9,22,0.00
2013-9-10,-90,-90,-90,-100,-100,-100,0,0,100,30.16,30.03,25,9,25,0.00
2013-9-11,13,2,-89,-100,-100,-100,0,0,100,30.10,29.97,17,8,28,0.00
2013-9-12,20,9,6,-100,-100,-100,0,0,100,29.98,29.68,20,9,33,0.00
2013-9-13,65,9,-12,55,-92,-100,75,4,72,29.82,29.61,21,8,25,0.09
2013-9-14,65,48,-16,54,17,-100,83,59,58,30.11,29.82,17,10,23,0.00
2013-9-15,66,23,-27,56,-33,-100,86,37,62,30.20,30.07,19,9,22,0.00
2013-9-16,64,-1,-27,55,-95,-100,79,2,79,30.17,30.02,19,7,19,0.03
2013-9-17,62,58,53,54,44,-100,80,63,54,30.40,30.18,21,9,30,0.00
2013-9-18,64,58,49,54,48,-100,85,73,60,30.32,30.18,11,6,16,0.00
2013-9-19,68,58,-11,59,40,-100,92,72,61,30.19,30.06,27,8,39,0.00
2013-9-20,62,17,-9,58,-44,-100,92,32,80,30.07,29.98,14,6,18,0.00
2013-9-21,64,7,-9,-100,-100,-100,0,0,100,30.00,29.66,18,6,25,0.18
2013-9-22,62,5,-21,48,-81,-100,69,9,64,29.89,29.63,22,10,28,0.31
2013-9-23,64,40,-36,49,12,-100,79,54,54,30.01,29.89,18,8,23,0.00
2013-9-24,65,34,-41,54,6,-100,81,54,54,30.04,29.86,16,7,20,0.00
2013-9-25,66,59,-50,56,14,-100,79,55,66,29.93,29.86,13,5,19,0.00
2013-9-26,61,12,-20,54,-46,-100,81,29,75,30.06,29.91,12,5,14,0.00
2013-9-27,65,35,-16,54,-71,-100,78,15,70,30.22,30.07,13,7,20,0.00
2013-9-28,67,38,-19,57,-57,-100,76,20,71,30.29,30.20,17,9,17,0.00
2013-9-29,65,64,59,56,16,-100,78,54,64,30.19,30.04,16,8,18,0.00
2013-9-30,66,38,-16,56,-7,-100,77,46,69,30.05,29.96,13,7,15,0.00
2013-10-1,62,15,-15,53,-46,-100,75,27,72,29.99,29.88,15,7,18,0.00
2013-10-2,64,-7,-25,54,-97,-100,71,2,71,29.99,29.90,18,9,23,0.00
2013-10-3,70,3,-27,55,-90,-100,68,4,68,30.09,29.99,8,4,13,0.00
2013-10-4,68,-7,-23,-100,-100,-100,0,0,100,30.04,29.95,13,6,18,0.00
2013-10-5,5,-3,-10,-100,-100,-100,0,0,100,30.06,29.98,12,5,15,0.00
2013-10-6,18,10,2,-23,-98,-100,28,1,28,30.06,29.99,10,6,13,0.00
2013-10-7,23,18,8,-16,-97,-100,28,1,28,29.99,29.78,32,11,44,0.20
2013-10-8,8,-2,-17,-100,-100,-100,0,0,100,30.26,29.98,18,9,22,0.00
2013-10-9,-18,-40,-61,-100,-100,-100,0,0,100,30.32,30.21,32,19,34,0.00
2013-10-10,28,8,-61,-100,-100,-100,0,0,100,30.22,29.99,32,20,36,0.44
2013-10-11,64,36,25,62,-60,-100,98,21,28,30.02,29.94,34,22,41,0.67
2013-10-12,65,63,61,61,58,55,95,84,77,30.20,30.00,35,19,41,0.00
2013-10-13,62,60,59,58,54,51,88,80,75,30.33,30.20,30,20,38,0.00
2013-10-14,59,14,10,52,-97,-100,76,2,76,30.32,30.23,17,8,22,0.00
2013-10-15,26,18,10,-100,-100,-100,0,0,100,30.23,30.07,16,8,19,0.00
2013-10-16,36,29,26,-100,-100,-100,0,0,100,30.07,29.90,13,6,18,0.00
2013-10-17,33,31,30,2,-96,-100,28,1,28,29.90,29.69,21,7,26,0.00
2013-10-18,34,9,-18,-10,-74,-100,28,9,28,29.97,29.68,21,13,35,0.03
2013-10-19,36,13,-23,-100,-100,-100,0,0,100,29.98,29.75,16,5,24,0.01
2013-10-20,35,17,-4,-100,-100,-100,0,0,100,30.06,29.75,21,10,28,0.01
2013-10-21,5,-11,-33,-100,-100,-100,0,0,100,30.14,29.98,18,7,23,0.00
2013-10-22,14,-5,-37,-100,-100,-100,0,0,100,29.97,29.74,22,8,27,0.00
2013-10-23,56,50,-14,49,41,-100,88,74,66,29.80,29.58,22,7,26,0.17
2013-10-24,52,45,40,38,34,27,88,67,39,30.02,29.76,22,8,27,0.00
2013-10-25,53,45,38,35,33,31,77,64,44,30.23,30.02,21,9,25,0.00
2013-10-26,55,44,-24,43,24,-100,84,60,38,30.23,29.91,44,12,54,0.00
2013-10-27,54,23,-43,37,-9,-100,61,38,43,30.12,29.87,18,10,28,0.00
2013-10-28,56,11,-75,37,-22,-100,57,27,17,30.27,30.12,15,5,19,0.00
2013-10-29,56,41,-77,39,0,-100,56,33,1,30.38,30.28,18,9,22,0.00
2013-10-30,55,21,-18,37,-73,-100,53,8,4,30.33,30.18,9,3,12,0.01
2013-10-31,17,13,8,-100,-100,-100,0,0,100,30.21,29.82,20,8,29,0.01
2013-11-1,20,16,14,-100,-100,-100,0,0,100,29.81,29.58,27,12,35,0.08
2013-11-2,18,14,2,-100,-100,-100,0,0,100,29.76,29.60,17,4,18,0.01
2013-11-3,48,13,-4,31,-67,-100,61,15,53,30.41,29.77,20,9,25,0.00
2013-11-4,50,37,-27,34,6,-100,64,51,56,30.61,30.41,18,9,25,0.00
2013-11-5,51,-29,-49,36,-88,-100,59,8,54,30.61,30.45,14,8,19,0.00
2013-11-6,50,8,-54,27,-95,-100,40,1,5,30.46,30.07,16,6,22,0.00
2013-11-7,19,13,-1,-100,-100,-100,0,0,100,30.06,29.75,22,10,28,0.10
2013-11-8,48,19,-19,31,-47,-100,59,24,45,30.23,29.94,27,12,35,0.00
2013-11-9,46,-2,-42,27,-57,-100,59,18,45,30.30,30.00,16,9,22,0.00
2013-11-10,49,-47,-90,31,-92,-100,55,4,49,30.07,29.82,38,17,44,0.00
2013-11-11,53,-9,-90,37,-58,-100,60,23,47,30.21,29.98,20,11,25,0.00
2013-11-12,51,37,-90,36,-9,-100,60,40,2,30.28,29.91,24,12,36,0.02
2013-11-13,39,33,28,22,18,14,61,54,36,30.36,30.27,20,10,28,0.00
2013-11-14,54,42,31,31,20,12,71,46,19,30.29,30.17,21,9,29,0.00
2013-11-15,53,44,38,42,36,31,89,74,51,30.25,30.16,20,7,27,0.00
2013-11-16,51,46,42,48,43,34,97,87,70,30.33,30.21,6,2,10,0.05
2013-11-17,58,54,49,58,53,48,99,98,96,30.25,29.79,12,4,14,0.01
2013-11-18,64,41,-19,61,3,-100,100,50,34,29.78,29.62,47,16,59,0.00
2013-11-19,52,45,37,31,25,-100,60,52,44,30.33,29.79,26,13,33,0.00
2013-11-20,44,40,34,31,25,21,61,56,47,30.57,30.32,18,9,25,0.00
2013-11-21,52,49,45,37,28,9,61,48,20,30.57,30.38,14,7,18,0.00
2013-11-22,56,38,2,12,-88,-100,22,2,6,30.37,29.90,16,7,21,0.01
2013-11-23,54,40,3,28,7,-100,58,42,8,30.02,29.90,26,15,39,0.00
2013-11-24,33,27,24,18,7,4,54,43,36,30.40,30.00,39,20,44,0.00
2013-11-25,36,29,21,20,14,7,62,54,44,30.51,30.35,18,10,22,0.00
2013-11-26,55,42,32,27,-14,-100,60,37,13,30.35,29.72,32,9,39,0.49
2013-11-27,56,24,-5,22,-85,-100,57,6,11,29.77,29.33,33,18,42,1.07
2013-11-28,36,33,30,21,18,15,61,55,42,30.47,29.78,34,13,37,0.00
2013-11-29,40,34,30,23,20,15,63,57,49,30.70,30.47,11,5,14,0.00
2013-11-30,47,38,30,29,19,-100,63,55,5,30.71,30.34,17,8,19,0.00
2013-12-1,48,42,36,33,-54,-202,56,13,1,30.33,30.00,8,4,13,0.00
2013-12-2,47,41,36,40,36,32,96,81,60,30.01,29.86,7,2,9,0.00
2013-12-3,49,43,38,42,40,35,97,88,72,29.99,29.85,10,4,11,0.00
2013-12-4,51,45,37,48,42,34,98,90,80,30.10,30.00,7,2,7,0.00
2013-12-5,53,50,48,52,49,47,99,98,95,30.09,29.93,18,7,22,0.01
2013-12-6,53,46,38,52,46,37,99,97,93,30.10,29.87,18,9,23,0.13
2013-12-7,40,37,33,36,21,-100,97,74,58,30.48,30.05,21,9,25,0.06
2013-12-8,38,28,0,23,-36,-100,62,32,11,30.56,30.30,23,9,27,0.38
2013-12-9,9,3,-3,-100,-100,-100,0,0,100,30.29,29.95,28,12,32,0.60
2013-12-10,36,6,-13,-100,-100,-100,0,0,100,30.15,29.85,15,9,23,0.13
2013-12-11,33,25,-33,20,-39,-202,60,27,1,30.36,30.16,20,10,26,0.00
2013-12-12,28,25,22,13,11,6,65,56,42,30.36,30.19,18,10,26,0.00
2013-12-13,36,16,-37,21,-19,-100,65,45,48,30.32,30.15,23,10,27,0.00
2013-12-14,39,20,-47,23,-64,-100,64,18,10,30.43,29.68,31,15,36,0.87
2013-12-15,39,13,-6,25,-78,-100,60,10,52,29.87,29.46,27,14,36,0.30
2013-12-16,33,29,26,20,14,11,61,54,45,30.23,29.86,23,12,31,0.00
2013-12-17,42,25,-11,21,-61,-100,63,17,1,30.22,29.89,19,7,23,0.09
2013-12-18,38,31,26,23,-15,-202,59,33,2,30.18,29.89,25,12,30,0.00
2013-12-19,43,10,-23,19,-50,-100,54,16,4,30.21,30.04,16,8,20,0.00
2013-12-20,46,-24,-50,-50,-99,-100,37,0,37,30.09,29.98,18,8,21,0.00
2013-12-21,45,0,-14,-100,-100,-100,0,0,100,30.00,29.89,17,9,24,0.00
2013-12-22,18,12,6,-100,-100,-100,0,0,100,29.97,29.84,29,12,37,0.04
2013-12-23,22,15,2,-100,-100,-100,0,0,100,30.12,29.86,23,7,27,0.37
2013-12-24,44,32,-20,25,-5,-100,61,45,39,30.34,30.07,22,12,31,0.00
2013-12-25,32,27,21,20,14,10,63,58,46,30.51,30.34,26,8,30,0.00
2013-12-26,41,33,28,27,15,-100,62,55,48,30.40,30.15,17,7,22,0.00
2013-12-27,44,15,-90,24,-5,-100,61,40,30,30.37,30.26,18,7,25,0.00
2013-12-28,48,-17,-90,31,-47,-100,61,21,21,30.30,30.07,24,12,32,0.00
2013-12-29,47,31,-1,29,-55,-100,59,18,13,30.06,29.37,34,11,39,1.23
2013-12-30,46,34,-4,25,-52,-202,59,22,46,30.16,29.70,18,10,29,0.00
2013-12-31,38,30,24,24,16,12,60,58,52,30.28,30.06,23,9,31,0.00
2014-1-1,41,33,25,25,12,-100,61,50,3,30.40,30.19,17,6,24,0.00
2014-1-2,44,37,28,-100,-100,-202,0,0,100,30.19,29.57,27,17,36,0.00